• Join FlightAware (Why Join?)
  • Login
  • US Flag 
07:13PM EDT


 

Airport Tracker/Info


-or-


 

Live Flight TrackerFlight Track Log ✈ RPA3275 ✈ 09-Jun-2013 ✈ KALB - KPHL

Flight Track Log - Related Links

Times and Time Zones

All times are in EDT time to prevent confusion due to time zone crossing. See the RPA3275 flight status page for this flight to view local times or setup timezone preferences in your user account.

Time Position Orientation Groundspeed Altitude Reporting Facility
EDT Latitude Longitude Course Direction KTS MPH feet Rate Location/Type
07:06AM 42.7653 -73.8061 223° Southwest 154 177 1,600  Level Boston Center
07:07AM 42.7778 -73.8092 350° North 150 173 2,300 2,760 Climbing Boston Center
07:08AM 42.7803 -73.9478 271° West 235 270 7,400 3,360 Climbing Boston Center
07:09AM 42.7333 -74.2756 270° West  Level FlightAware Approximate
07:09AM 42.7706 -74.0439 262° West 240 276 11,800  Level Boston Center
07:10AM 42.6860 -74.3679 220° Southwest  Level FlightAware Approximate
07:10AM 42.7608 -74.1369 262° West 245 282 15,300  Level Boston Center
07:11AM 42.6187 -74.4436 220° Southwest  Level FlightAware Approximate
07:11AM 42.7533 -74.2242 263° West 264 304 17,900  Level Boston Center
07:12AM 42.5529 -74.5214 223° Southwest  Level FlightAware Approximate
07:12AM 42.7286 -74.3311 253° West 272 313 18,000  Level Boston Center
07:13AM 42.6733 -74.3942 220° Southwest 272 313 18,000  Level Boston Center
07:14AM 42.6053 -74.4683 219° Southwest 281 323 18,000  Level Boston Center
07:15AM 42.5456 -74.5397 221° Southwest 292 336 18,000  Level Boston Center
07:16AM 42.4839 -74.6108 220° Southwest 292 336 18,000 420 Level Boston Center
07:17AM 42.4114 -74.6925 220° Southwest 330 380 18,900 300 Climbing Boston Center
07:20AM 42.2369 -74.8911 220° Southwest 352 405 19,000  Climbing New York Center
07:21AM 42.1678 -74.9678 219° Southwest 360 414 19,000  Level New York Center
07:22AM 42.0753 -75.0458 212° Southwest 365 420 19,000  Level New York Center
07:23AM 41.9897 -75.1156 211° Southwest 365 420 19,000  Level New York Center
07:24AM 41.9122 -75.1800 212° Southwest 365 420 19,000  Level New York Center
07:25AM 41.8178 -75.2572 211° Southwest 365 420 19,000  Level New York Center
07:26AM 41.7342 -75.3239 211° Southwest 365 420 19,000 -900 Level New York Center
07:27AM 41.6503 -75.3903 211° Southwest 360 414 17,300 -2,100 Descending New York Center
07:28AM 41.5772 -75.4492 211° Southwest 353 406 14,900 -2,400 Descending New York Center
07:29AM 41.4975 -75.5128 211° Southwest 348 400 12,600 -1,500 Descending New York Center
07:30AM 41.4181 -75.5764 211° Southwest 329 379 11,900 -300 Descending New York Center
07:31AM 41.3492 -75.6267 209° Southwest 300 345 12,000  Climbing New York Center
07:32AM 41.2844 -75.6800 212° Southwest 294 338 12,000  Level New York Center
07:33AM 41.2139 -75.7272 207° Southwest 284 327 12,000  Level New York Center
07:34AM 41.1392 -75.7192 175° South 277 319 12,000 -60 Level New York Center
07:35AM 41.0561 -75.7158 178° South 296 341 11,900  Descending New York Center
07:36AM 40.9647 -75.7092 177° South 301 346 12,000  Climbing New York Center
07:37AM 40.8817 -75.7031 177° South 306 352 12,000  Level New York Center
07:38AM 40.8103 -75.6650 158° South 306 352 12,000  Level New York Center
07:39AM 40.7331 -75.6156 154° Southeast 311 358 12,000 -60 Level New York Center
07:40AM 40.6478 -75.5603 154° Southeast 316 364 11,900 -360 Descending New York Center
07:41AM 40.5686 -75.5083 154° Southeast 316 364 11,300 -1,020 Descending New York Center
07:42AM 40.4956 -75.4597 153° Southeast 310 357 10,000 -660 Descending New York Center
07:43AM 40.4306 -75.4197 155° Southeast 303 349 10,000 -720 Level New York Center
07:44AM 40.3489 -75.3733 157° South 294 338 8,600 -1,560 Descending New York Center
07:45AM 40.2733 -75.3303 156° South 294 338 7,000 -900 Descending New York Center
07:46AM 40.2061 -75.2906 156° South 289 333 6,900 -60 Descending New York Center
07:47AM 40.1328 -75.2478 156° South 289 333 6,900  Level New York Center
07:48AM 40.0592 -75.2078 157° South 289 333 6,900  Level New York Center
07:48AM 40.0167 -75.1833 156° South 262 302 6,900 -540 Level Philadelphia TRACON
07:49AM 40.0000 -75.1000 105° East 246 283 6,100 -1,020 Descending Philadelphia TRACON
07:50AM 40.0167 -75.0167 75° East 252 290 4,900 -1,500 Descending Philadelphia TRACON
07:51AM 39.9500 -75.0000 169° South 221 254 3,000 -1,740 Descending Philadelphia TRACON